Grand Ledge, MI (48837)

12:16 PM EST on December 20, 2014 (GMT -0500)
(MAC) Lansing | Change Station
CLOSE
Current Station
Personal Weather Station
Location: Lansing, MI
Elevation: 885 ft
Nearby Weather Stations

Elev 885 ft 42.74 °N, 84.66 °W | Updated 2 minutes ago

Clear
Clear
30.6 °F
Feels Like 31 °F
N
1.0
Wind Variable Wind from WNW
Gusts 2.0 mph

Today
High -- | Low -- °F
--% Chance of Precip.
Yesterday
High -- | Low -- °F
Precip. -- in
8:05 AM 5:07 PM
Waning Crescent, 2% visible
Pressure 30.28 in
Visibility 8.0 miles
Clouds Scattered Clouds 1800 ft
Windchill 31 °F
Dew Point 25 °F
Humidity 79%
Rainfall 0.00 in
Snow Depth Not available.
UV 2 out of 12
Pollen .10 out of 12
Air Quality Not available.
Flu Activity Not available.
SPECI KLAN 201704Z 00000KT 8SM SCT018 M02/M06 A3028 RMK AO2 T10171056

More Conditions Fewer Conditions

Pressure 30.28 in
Visibility 8.0 miles
Clouds Scattered Clouds 1800 ft
Windchill 31 °F
Dew Point 25 °F
Humidity 79%
Rainfall 0.00 in
Snow Depth Not available.
UV 2 out of 12
Pollen .10 out of 12
Air Quality Not available.
Flu Activity Not available.
SPECI KLAN 201704Z 00000KT 8SM SCT018 M02/M06 A3028 RMK AO2 T10171056

More Conditions Fewer Conditions

10-Day Weather Forecast

Almanac

Astronomy

Dec. 20, 2014 Rise Set
Actual Time
Civil Twilight
Nautical Twilight
Astronomical Twilight
Moon
Length of Visible Light
Length of Day
Tomorrow will be .
, % of the Moon is Illuminated

Today's Extremes

State Highs State Lows

Community

WunderPhotos

Upload Photos

1,779,224 photos uploaded!

WunderBlogs® & News

Nearby

Air Quality

  Air Quality AQ Index Pollutant
Not available.

Snow Depth

Station Depth Elevation

Earthquake Activity

City Distance Mag. Time & Date
Minimum magnitude displayed is 2.5.

Coastal Water Temperatures

Place Temperature

Nearby Weather Stations